Time;durP1;ratioP1;P1;durP2;ratioP2;P2;SDS_P1;SDS_P2;PMS_P1;PMS_P2;Temp;Humidity;BMP_temperature;BMP_pressure;BME280_temperature;BME280_humidity;BME280_pressure;Samples;Min_cycle;Max_cycle;Signal;HPM_P1;HPM_P2
2023/07/23 00:00:27;;;;;;;7.25;5.15;;;19.30;99.90;;;;;;5011931;28;20214;-74
2023/07/23 00:02:53;;;;;;;7.88;5.07;;;19.30;99.90;;;;;;5014665;28;20736;-73
2023/07/23 00:05:19;;;;;;;7.53;5.15;;;19.30;99.90;;;;;;5012682;28;20255;-75
2023/07/23 00:07:44;;;;;;;7.05;5.25;;;19.30;99.90;;;;;;5022973;28;20237;-74
2023/07/23 00:10:10;;;;;;;6.65;4.60;;;19.30;99.90;;;;;;5011949;28;20586;-75
2023/07/23 00:12:36;;;;;;;6.65;5.13;;;19.30;99.90;;;;;;5017400;28;20287;-74
2023/07/23 00:15:05;;;;;;;6.20;4.88;;;19.30;99.90;;;;;;5012950;28;20213;-73
2023/07/23 00:17:31;;;;;;;7.80;5.35;;;19.30;99.90;;;;;;5034287;28;20299;-74
2023/07/23 00:19:56;;;;;;;5.88;4.93;;;19.30;99.90;;;;;;5014441;28;20276;-72
2023/07/23 00:22:22;;;;;;;8.05;5.68;;;19.20;99.90;;;;;;5020232;28;20203;-73
2023/07/23 00:24:48;;;;;;;8.02;5.03;;;19.20;99.90;;;;;;5017273;28;20258;-72
2023/07/23 00:27:14;;;;;;;10.52;5.47;;;19.10;99.90;;;;;;5019238;28;20221;-73
2023/07/23 00:29:42;;;;;;;5.70;4.90;;;19.10;99.90;;;;;;5019049;28;20937;-73
2023/07/23 00:32:08;;;;;;;7.65;5.45;;;19.10;99.90;;;;;;5024190;28;20184;-73
2023/07/23 00:34:34;;;;;;;5.32;4.80;;;19.10;99.90;;;;;;5010934;28;20837;-73
2023/07/23 00:37:00;;;;;;;6.68;5.40;;;19.00;99.90;;;;;;5011927;28;20238;-73
2023/07/23 00:39:26;;;;;;;6.97;4.78;;;19.00;99.90;;;;;;5010593;28;20217;-73
2023/07/23 00:41:52;;;;;;;7.13;4.93;;;19.00;99.90;;;;;;5013252;28;20223;-72
2023/07/23 00:44:18;;;;;;;8.10;4.68;;;19.00;99.90;;;;;;5010423;28;20222;-74
2023/07/23 00:46:44;;;;;;;6.60;5.38;;;19.00;99.90;;;;;;5016888;28;20176;-73
2023/07/23 00:49:11;;;;;;;7.05;4.78;;;19.00;99.90;;;;;;5013375;28;20263;-73
2023/07/23 00:51:38;;;;;;;8.88;6.57;;;19.10;99.90;;;;;;5019698;28;20706;-74
2023/07/23 00:54:04;;;;;;;6.65;5.20;;;19.00;99.90;;;;;;5010953;28;20251;-73
2023/07/23 00:56:30;;;;;;;6.35;5.32;;;19.00;99.90;;;;;;5018758;28;20204;-74
2023/07/23 00:58:57;;;;;;;7.10;5.50;;;19.00;99.90;;;;;;5014813;28;20181;-73
2023/07/23 01:01:23;;;;;;;6.85;4.97;;;19.00;99.90;;;;;;5020382;28;20180;-74
2023/07/23 01:03:51;;;;;;;6.20;4.80;;;19.00;99.90;;;;;;5017063;28;20208;-73
2023/07/23 01:06:18;;;;;;;6.88;5.32;;;19.00;99.90;;;;;;5019339;28;20703;-73
2023/07/23 01:08:45;;;;;;;6.35;5.30;;;18.90;99.90;;;;;;5019089;28;20212;-72
2023/07/23 01:11:11;;;;;;;9.30;5.28;;;18.90;99.90;;;;;;5006558;28;20177;-73
2023/07/23 01:13:38;;;;;;;7.18;5.35;;;18.80;99.90;;;;;;5010168;28;20575;-74
2023/07/23 01:16:07;;;;;;;7.07;4.88;;;18.80;99.90;;;;;;5009775;28;20233;-73
2023/07/23 01:18:42;;;;;;;6.15;5.22;;;18.90;99.90;;;;;;5011878;28;20205;-73
2023/07/23 01:21:09;;;;;;;7.85;5.32;;;18.90;99.90;;;;;;5009033;28;20213;-74
2023/07/23 01:23:36;;;;;;;5.93;4.38;;;18.90;99.90;;;;;;5014553;28;20208;-74
2023/07/23 01:26:03;;;;;;;10.52;5.80;;;18.90;99.90;;;;;;5018028;28;20210;-72
2023/07/23 01:28:29;;;;;;;8.10;5.65;;;18.80;99.90;;;;;;5015278;28;20174;-73
2023/07/23 01:30:55;;;;;;;5.70;4.60;;;18.90;99.90;;;;;;5017191;28;20208;-72
2023/07/23 01:33:22;;;;;;;7.88;4.68;;;18.90;99.90;;;;;;5017303;28;20216;-73
2023/07/23 01:35:54;;;;;;;8.65;5.18;;;18.90;99.90;;;;;;5015258;28;20703;-73
2023/07/23 01:38:21;;;;;;;5.43;4.55;;;18.90;99.90;;;;;;5016537;28;20205;-72
2023/07/23 01:40:47;;;;;;;6.85;5.25;;;18.90;99.90;;;;;;5013879;28;20220;-72
2023/07/23 01:43:13;;;;;;;6.30;5.07;;;18.90;99.90;;;;;;5027221;28;20288;-73
2023/07/23 01:45:44;;;;;;;8.70;5.03;;;18.90;99.90;;;;;;5027535;28;20567;-72
2023/07/23 01:48:10;;;;;;;7.30;5.05;;;19.00;99.90;;;;;;5010747;28;20215;-73
2023/07/23 01:50:36;;;;;;;8.27;5.55;;;19.00;99.90;;;;;;5009816;28;20210;-73
2023/07/23 01:53:01;;;;;;;6.57;5.55;;;18.80;99.90;;;;;;5015747;28;20255;-73
2023/07/23 01:55:27;;;;;;;8.23;5.00;;;18.90;99.90;;;;;;5009666;28;20209;-73
2023/07/23 01:57:53;;;;;;;6.60;5.30;;;18.90;99.90;;;;;;5014763;28;20207;-71
2023/07/23 02:00:21;;;;;;;7.85;5.35;;;18.90;99.90;;;;;;5009157;28;20224;-73
2023/07/23 02:02:47;;;;;;;6.55;5.25;;;18.80;99.90;;;;;;5017868;28;20208;-72
2023/07/23 02:05:13;;;;;;;7.47;4.90;;;18.70;99.90;;;;;;5012710;28;20355;-73
2023/07/23 02:07:39;;;;;;;6.60;4.55;;;18.60;99.90;;;;;;5011693;28;20181;-73
2023/07/23 02:10:06;;;;;;;6.10;5.00;;;18.60;99.90;;;;;;5009100;28;20233;-72
2023/07/23 02:12:33;;;;;;;8.85;5.20;;;18.60;99.90;;;;;;5017014;28;20293;-74
2023/07/23 02:14:58;;;;;;;7.53;5.10;;;18.60;99.90;;;;;;5015767;28;20698;-72
2023/07/23 02:17:25;;;;;;;7.53;5.30;;;18.50;99.90;;;;;;5022904;28;20300;-72
2023/07/23 02:19:51;;;;;;;6.57;5.88;;;18.50;99.90;;;;;;5019591;28;20250;-73
2023/07/23 02:22:17;;;;;;;6.75;5.03;;;18.40;99.90;;;;;;5020131;28;20241;-73
2023/07/23 02:24:42;;;;;;;7.20;5.45;;;18.40;99.90;;;;;;5009917;28;20221;-73
2023/07/23 02:27:08;;;;;;;6.35;5.15;;;18.40;99.90;;;;;;5011401;28;20204;-74
2023/07/23 02:29:34;;;;;;;5.47;4.90;;;18.30;99.90;;;;;;5014138;28;20531;-73
2023/07/23 02:31:59;;;;;;;7.28;5.85;;;18.30;99.90;;;;;;5012714;28;20176;-72
2023/07/23 02:34:25;;;;;;;7.78;6.18;;;18.40;99.90;;;;;;5016525;28;20667;-73
2023/07/23 02:36:50;;;;;;;9.52;5.22;;;18.30;99.90;;;;;;5024290;28;20679;-74
2023/07/23 02:39:16;;;;;;;8.13;5.82;;;18.30;99.90;;;;;;5015853;28;20221;-72
2023/07/23 02:41:42;;;;;;;7.10;5.70;;;18.20;99.90;;;;;;5021951;28;20212;-72
2023/07/23 02:44:07;;;;;;;6.75;5.80;;;18.20;99.90;;;;;;5020892;28;20276;-72
2023/07/23 02:46:33;;;;;;;7.85;5.90;;;18.30;99.90;;;;;;5023640;28;20209;-73
2023/07/23 02:48:58;;;;;;;8.52;5.38;;;18.30;99.90;;;;;;5021562;28;20883;-73
2023/07/23 02:51:24;;;;;;;9.95;5.70;;;18.20;99.90;;;;;;5021935;28;20221;-74
2023/07/23 02:53:50;;;;;;;7.55;5.95;;;18.10;99.90;;;;;;5018004;28;20735;-73
2023/07/23 02:56:15;;;;;;;7.25;6.15;;;18.20;99.90;;;;;;5020516;28;20270;-73
2023/07/23 02:58:41;;;;;;;7.38;5.45;;;18.10;99.90;;;;;;5023753;28;20840;-73
2023/07/23 03:01:09;;;;;;;7.30;6.07;;;18.00;99.90;;;;;;5019230;28;20551;-72
2023/07/23 03:03:35;;;;;;;8.02;6.03;;;18.00;99.90;;;;;;5019853;28;20201;-72
2023/07/23 03:06:01;;;;;;;8.80;6.38;;;18.00;99.90;;;;;;5023559;28;20658;-73
2023/07/23 03:08:27;;;;;;;8.40;6.18;;;18.00;99.90;;;;;;5016444;28;20232;-73
2023/07/23 03:10:53;;;;;;;6.20;5.28;;;17.90;99.90;;;;;;5023131;28;20859;-73
2023/07/23 03:13:19;;;;;;;8.38;6.30;;;18.00;99.90;;;;;;5016737;28;20580;-73
2023/07/23 03:15:44;;;;;;;9.57;6.60;;;18.00;99.90;;;;;;5017009;28;20213;-74
2023/07/23 03:18:10;;;;;;;6.20;5.40;;;17.90;99.90;;;;;;5016446;28;20512;-72
2023/07/23 03:20:35;;;;;;;9.30;6.40;;;18.00;99.90;;;;;;5022003;28;20205;-74
2023/07/23 03:23:01;;;;;;;8.57;6.43;;;18.00;99.90;;;;;;5021286;28;20565;-74
2023/07/23 03:25:27;;;;;;;9.65;6.35;;;18.00;99.90;;;;;;5021099;28;20217;-73
2023/07/23 03:27:53;;;;;;;7.72;6.75;;;17.90;99.90;;;;;;5022107;28;20204;-73
2023/07/23 03:30:18;;;;;;;7.60;6.05;;;17.90;99.90;;;;;;5019988;28;20686;-72
2023/07/23 03:32:44;;;;;;;7.50;6.38;;;17.90;99.90;;;;;;5019421;28;20201;-72
2023/07/23 03:35:10;;;;;;;16.63;12.93;;;17.90;99.90;;;;;;5022507;28;20284;-72
2023/07/23 03:37:35;;;;;;;13.70;7.93;;;17.90;99.90;;;;;;5020106;28;20181;-73
2023/07/23 03:40:01;;;;;;;11.00;8.00;;;18.00;99.90;;;;;;5023029;28;20208;-72
2023/07/23 03:42:26;;;;;;;12.68;8.23;;;17.90;99.90;;;;;;5019526;28;20224;-73
2023/07/23 03:44:52;;;;;;;10.68;7.35;;;17.80;99.90;;;;;;5022094;28;20208;-72
2023/07/23 03:47:20;;;;;;;9.48;7.15;;;17.80;99.90;;;;;;5018850;28;20219;-72
2023/07/23 03:49:47;;;;;;;22.50;11.75;;;17.90;99.90;;;;;;5022274;28;20252;-72
2023/07/23 03:52:13;;;;;;;16.45;11.30;;;17.90;99.90;;;;;;5020496;28;20208;-74
2023/07/23 03:54:39;;;;;;;22.60;13.48;;;18.00;99.90;;;;;;5021171;28;20245;-73
2023/07/23 03:57:05;;;;;;;11.10;8.25;;;18.00;99.90;;;;;;5021356;28;20208;-72
2023/07/23 03:59:42;;;;;;;11.48;7.70;;;18.00;99.90;;;;;;5011223;28;20228;-74
2023/07/23 04:02:08;;;;;;;9.85;7.63;;;18.00;99.90;;;;;;5018789;28;20206;-73
2023/07/23 04:04:35;;;;;;;9.70;7.25;;;18.00;99.90;;;;;;5021167;28;20231;-72
2023/07/23 04:07:01;;;;;;;8.55;6.45;;;18.10;99.90;;;;;;5019122;28;20270;-73
2023/07/23 04:09:27;;;;;;;9.35;6.97;;;18.10;99.90;;;;;;5019583;28;20251;-72
2023/07/23 04:11:53;;;;;;;9.20;7.43;;;18.00;99.90;;;;;;5020895;28;20287;-72
2023/07/23 04:14:19;;;;;;;7.97;6.82;;;18.10;99.90;;;;;;5016629;28;20236;-73
2023/07/23 04:16:45;;;;;;;10.70;7.15;;;18.00;99.90;;;;;;5019573;28;20212;-73
2023/07/23 04:19:11;;;;;;;9.18;6.82;;;18.10;99.90;;;;;;5021036;28;20232;-73
2023/07/23 04:21:37;;;;;;;12.93;7.70;;;18.00;99.90;;;;;;5018188;28;20255;-72
2023/07/23 04:24:02;;;;;;;8.45;6.93;;;18.00;99.90;;;;;;5021749;28;20208;-73
2023/07/23 04:26:29;;;;;;;11.27;7.82;;;18.10;99.90;;;;;;5017903;28;20225;-74
2023/07/23 04:28:55;;;;;;;11.75;7.32;;;18.10;99.90;;;;;;5021269;28;20180;-72
2023/07/23 04:31:20;;;;;;;7.82;7.00;;;18.00;99.90;;;;;;5020280;28;20252;-72
2023/07/23 04:33:46;;;;;;;8.20;6.93;;;17.80;99.90;;;;;;5018283;28;20209;-73
2023/07/23 04:36:13;;;;;;;8.80;6.80;;;17.90;99.90;;;;;;5019231;28;20200;-72
2023/07/23 04:38:40;;;;;;;9.60;7.30;;;17.90;99.90;;;;;;5017108;28;20208;-71
2023/07/23 04:41:06;;;;;;;12.07;7.63;;;18.00;99.90;;;;;;5018542;28;20182;-72
2023/07/23 04:43:35;;;;;;;9.20;7.03;;;18.00;99.90;;;;;;5017854;28;20636;-72
2023/07/23 04:46:00;;;;;;;9.32;6.65;;;18.10;99.90;;;;;;5019296;28;20307;-73
2023/07/23 04:48:26;;;;;;;10.50;7.65;;;18.10;99.90;;;;;;5016967;28;20307;-72
2023/07/23 04:50:56;;;;;;;10.98;7.05;;;18.10;99.90;;;;;;5015794;28;20630;-71
2023/07/23 04:53:23;;;;;;;10.38;6.93;;;18.10;99.90;;;;;;5013796;28;20714;-72
2023/07/23 04:55:57;;;;;;;8.60;7.05;;;18.00;99.90;;;;;;5009866;28;20584;-72
2023/07/23 04:58:23;;;;;;;9.00;6.75;;;18.20;99.90;;;;;;5011860;28;20294;-74
2023/07/23 05:00:50;;;;;;;10.32;7.50;;;18.30;99.90;;;;;;5011437;28;20237;-73
2023/07/23 05:03:16;;;;;;;9.65;7.63;;;18.40;99.90;;;;;;5015093;28;20215;-73
2023/07/23 05:05:44;;;;;;;9.45;7.20;;;18.30;99.90;;;;;;5011617;28;20214;-72
2023/07/23 05:08:10;;;;;;;8.35;7.32;;;18.30;99.90;;;;;;5015854;28;20203;-73
2023/07/23 05:10:36;;;;;;;9.55;7.78;;;18.20;99.90;;;;;;5012842;28;20635;-72
2023/07/23 05:13:02;;;;;;;12.18;7.45;;;18.20;99.90;;;;;;5017222;28;20295;-72
2023/07/23 05:15:28;;;;;;;10.68;7.53;;;18.00;99.90;;;;;;5024692;28;20213;-74
2023/07/23 05:17:53;;;;;;;9.52;7.45;;;18.10;99.90;;;;;;5028185;28;20208;-72
2023/07/23 05:20:19;;;;;;;9.70;7.97;;;18.10;99.90;;;;;;5020204;28;20272;-71
2023/07/23 05:22:45;;;;;;;9.90;7.60;;;18.30;99.90;;;;;;5018301;28;20274;-73
2023/07/23 05:25:10;;;;;;;10.00;8.02;;;18.40;99.90;;;;;;5017634;28;20250;-72
2023/07/23 05:27:37;;;;;;;10.25;7.15;;;18.50;99.90;;;;;;5014895;28;20211;-71
2023/07/23 05:30:03;;;;;;;8.68;7.05;;;18.50;99.90;;;;;;5010657;28;20289;-72
2023/07/23 05:32:30;;;;;;;8.70;6.97;;;18.60;99.90;;;;;;5010610;28;20212;-73
2023/07/23 05:34:55;;;;;;;8.57;6.40;;;18.40;99.90;;;;;;5010510;28;20609;-73
2023/07/23 05:37:21;;;;;;;7.90;6.72;;;18.50;99.90;;;;;;5013309;28;20177;-72
2023/07/23 05:39:49;;;;;;;8.30;7.13;;;18.50;99.90;;;;;;5010041;28;20210;-74
2023/07/23 05:42:15;;;;;;;11.32;8.18;;;18.60;99.90;;;;;;5014592;28;20208;-73
2023/07/23 05:44:40;;;;;;;9.88;7.05;;;18.60;99.90;;;;;;5013479;28;20722;-71
2023/07/23 05:47:07;;;;;;;9.27;7.00;;;18.70;99.90;;;;;;5016297;28;20180;-73
2023/07/23 05:49:32;;;;;;;8.40;6.63;;;18.90;99.90;;;;;;5012172;28;20230;-72
2023/07/23 05:51:59;;;;;;;11.10;7.60;;;19.10;99.90;;;;;;5017620;28;20208;-72
2023/07/23 05:54:25;;;;;;;10.32;8.48;;;19.10;99.90;;;;;;5013740;28;20265;-72
2023/07/23 05:56:51;;;;;;;9.75;7.30;;;19.20;99.90;;;;;;5018064;28;20227;-73
2023/07/23 05:59:16;;;;;;;8.80;6.75;;;19.30;99.90;;;;;;5015941;28;20801;-73
2023/07/23 06:01:42;;;;;;;7.57;6.32;;;19.50;99.90;;;;;;5018965;28;20268;-73
2023/07/23 06:04:08;;;;;;;7.93;6.55;;;19.50;99.90;;;;;;5017851;28;20219;-73
2023/07/23 06:06:34;;;;;;;8.13;6.57;;;19.80;99.90;;;;;;5007231;28;20742;-72
2023/07/23 06:09:00;;;;;;;8.00;6.78;;;20.00;99.90;;;;;;5007921;28;20222;-72
2023/07/23 06:11:25;;;;;;;7.60;6.38;;;20.30;99.90;;;;;;5009549;28;20227;-73
2023/07/23 06:13:51;;;;;;;8.60;5.95;;;20.90;99.90;;;;;;5009470;28;20201;-73
2023/07/23 06:16:16;;;;;;;8.90;5.88;;;21.30;99.90;;;;;;5009571;28;20212;-73
2023/07/23 06:18:42;;;;;;;8.82;5.88;;;22.40;99.90;;;;;;5010633;28;20768;-73
2023/07/23 06:21:07;;;;;;;7.93;6.03;;;22.90;99.90;;;;;;5009599;28;20236;-72
2023/07/23 06:23:34;;;;;;;6.40;5.63;;;22.90;99.90;;;;;;5013094;28;20220;-72
2023/07/23 06:26:00;;;;;;;6.20;5.15;;;23.20;99.90;;;;;;5016420;28;20208;-73
2023/07/23 06:28:26;;;;;;;7.20;5.30;;;23.40;99.90;;;;;;5014533;28;20251;-71
2023/07/23 06:30:54;;;;;;;6.68;5.45;;;23.10;99.90;;;;;;5015776;28;20688;-73
2023/07/23 06:33:20;;;;;;;5.65;4.93;;;22.70;99.90;;;;;;5018713;28;20722;-73
2023/07/23 06:35:47;;;;;;;6.50;4.85;;;22.70;99.90;;;;;;5017045;28;20209;-72
2023/07/23 06:38:13;;;;;;;7.35;5.68;;;22.70;99.90;;;;;;5017015;28;20212;-72
2023/07/23 06:40:46;;;;;;;6.15;5.55;;;22.50;99.90;;;;;;5015647;28;20257;-73
2023/07/23 06:43:13;;;;;;;8.93;5.30;;;22.10;99.90;;;;;;5015151;28;20201;-72
2023/07/23 06:45:39;;;;;;;8.30;5.07;;;22.10;99.90;;;;;;5013008;28;20247;-72
2023/07/23 06:48:05;;;;;;;7.35;5.18;;;22.20;99.90;;;;;;5011033;28;20256;-73
2023/07/23 06:50:31;;;;;;;7.35;5.03;;;22.40;99.90;;;;;;5011961;28;20215;-73
2023/07/23 06:52:57;;;;;;;5.93;4.88;;;22.70;99.90;;;;;;5003490;28;20252;-72
2023/07/23 06:55:23;;;;;;;6.60;5.05;;;23.40;99.90;;;;;;5014557;28;20303;-73
2023/07/23 06:57:48;;;;;;;6.22;4.20;;;24.20;99.90;;;;;;5013054;28;20300;-73
2023/07/23 07:00:14;;;;;;;5.00;4.43;;;25.30;99.90;;;;;;5015018;28;20251;-73
2023/07/23 07:02:43;;;;;;;6.63;4.88;;;27.20;99.90;;;;;;5009795;28;20224;-73
2023/07/23 07:05:09;;;;;;;5.55;4.00;;;28.10;99.90;;;;;;5015652;28;20307;-72
2023/07/23 07:07:36;;;;;;;5.78;4.25;;;28.20;99.90;;;;;;5013630;28;20212;-73
2023/07/23 07:10:05;;;;;;;6.47;4.88;;;29.20;99.90;;;;;;5017655;28;20214;-73
2023/07/23 07:12:31;;;;;;;4.70;4.20;;;28.90;99.90;;;;;;5011674;28;20247;-73
2023/07/23 07:14:57;;;;;;;5.35;4.82;;;29.40;99.90;;;;;;5019335;28;20211;-72
2023/07/23 07:17:22;;;;;;;4.85;4.35;;;29.80;99.90;;;;;;5016399;28;20251;-72
2023/07/23 07:19:48;;;;;;;7.38;4.90;;;28.80;99.90;;;;;;5012533;28;20182;-73
2023/07/23 07:22:13;;;;;;;5.35;4.85;;;27.20;99.90;;;;;;5012611;28;20217;-72
2023/07/23 07:24:39;;;;;;;8.80;5.13;;;26.90;99.90;;;;;;5011890;28;20230;-73
2023/07/23 07:27:09;;;;;;;7.68;5.18;;;25.90;99.90;;;;;;5014814;28;20210;-73
2023/07/23 07:29:38;;;;;;;6.90;4.88;;;24.90;99.90;;;;;;5015129;28;20213;-73
2023/07/23 07:32:09;;;;;;;6.80;5.43;;;24.60;99.90;;;;;;5018254;28;20248;-71
2023/07/23 07:34:34;;;;;;;7.97;5.63;;;24.40;99.90;;;;;;5016482;28;20552;-72
2023/07/23 07:37:00;;;;;;;6.45;4.95;;;24.90;99.90;;;;;;5016796;28;20212;-73
2023/07/23 07:39:26;;;;;;;5.63;5.05;;;25.10;99.90;;;;;;5022041;28;20215;-72
2023/07/23 07:41:56;;;;;;;5.28;4.78;;;24.70;99.90;;;;;;5019582;28;20212;-71
2023/07/23 07:44:22;;;;;;;5.53;5.03;;;25.20;99.90;;;;;;5018802;28;20326;-73
2023/07/23 07:46:48;;;;;;;5.72;4.80;;;25.40;99.90;;;;;;5018498;28;20220;-73
2023/07/23 07:49:13;;;;;;;5.13;4.63;;;25.40;99.90;;;;;;5020183;28;20208;-73
2023/07/23 07:51:43;;;;;;;5.82;4.78;;;25.00;99.90;;;;;;5018472;28;20691;-73
2023/07/23 07:54:09;;;;;;;5.28;4.30;;;25.20;99.90;;;;;;5018613;28;20702;-74
2023/07/23 07:56:35;;;;;;;6.32;5.15;;;25.50;99.90;;;;;;5014204;28;21005;-72
2023/07/23 07:59:00;;;;;;;5.95;4.75;;;25.00;99.90;;;;;;5014746;28;20176;-74
2023/07/23 08:01:26;;;;;;;5.13;4.60;;;25.10;99.90;;;;;;5019503;28;20318;-73
2023/07/23 08:03:52;;;;;;;7.28;5.68;;;24.90;99.90;;;;;;5007839;28;20307;-72
2023/07/23 08:06:18;;;;;;;7.82;4.97;;;24.60;99.90;;;;;;5015815;28;20227;-73
2023/07/23 08:08:45;;;;;;;5.82;4.97;;;23.90;99.90;;;;;;5012774;28;20246;-72
2023/07/23 08:11:12;;;;;;;7.68;4.90;;;23.70;99.90;;;;;;5015657;28;20172;-72
2023/07/23 08:13:38;;;;;;;5.78;4.95;;;23.70;99.90;;;;;;5017115;28;20181;-72
2023/07/23 08:16:05;;;;;;;6.07;5.35;;;23.10;99.90;;;;;;5023465;28;20213;-73
2023/07/23 08:18:31;;;;;;;7.30;4.45;;;23.00;99.90;;;;;;5023002;28;20223;-74
2023/07/23 08:20:58;;;;;;;5.38;4.57;;;23.00;99.90;;;;;;5017374;28;20621;-73
2023/07/23 08:23:27;;;;;;;7.70;5.28;;;23.20;99.90;;;;;;5018857;28;20220;-74
2023/07/23 08:25:57;;;;;;;4.78;4.18;;;23.10;99.90;;;;;;5018480;28;20223;-72
2023/07/23 08:28:28;;;;;;;6.55;4.88;;;23.00;99.90;;;;;;5020310;28;20173;-72
2023/07/23 08:30:56;;;;;;;6.80;5.15;;;23.10;99.90;;;;;;5015607;28;20205;-71
2023/07/23 08:33:25;;;;;;;6.43;4.60;;;23.20;99.90;;;;;;5012698;28;20228;-74
2023/07/23 08:35:51;;;;;;;6.13;4.35;;;23.40;99.90;;;;;;5010424;28;20728;-73
2023/07/23 08:38:17;;;;;;;6.30;4.75;;;23.20;99.90;;;;;;5012769;28;20316;-73
2023/07/23 08:40:44;;;;;;;6.13;4.25;;;23.20;99.90;;;;;;5017189;28;20252;-73
2023/07/23 08:43:31;;;;;;;6.78;4.85;;;23.20;99.90;;;;;;5015652;28;20213;-74
2023/07/23 08:46:25;;;;;;;5.60;4.43;;;23.20;99.90;;;;;;5016247;28;20677;-72
2023/07/23 08:49:06;;;;;;;7.07;4.25;;;23.20;99.90;;;;;;5013554;28;20304;-73
2023/07/23 08:51:45;;;;;;;4.80;4.10;;;23.50;99.90;;;;;;5028611;28;20232;-73
2023/07/23 08:54:12;;;;;;;9.38;4.43;;;23.80;99.90;;;;;;5017889;28;20227;-73
2023/07/23 08:56:40;;;;;;;6.10;4.85;;;23.90;99.90;;;;;;5017616;28;20217;-73
2023/07/23 08:59:06;;;;;;;6.22;4.00;;;24.10;99.90;;;;;;5017673;28;20177;-74
2023/07/23 09:01:37;;;;;;;5.72;4.13;;;24.00;99.90;;;;;;5017850;28;20183;-74
2023/07/23 09:04:10;;;;;;;5.00;3.92;;;24.00;99.90;;;;;;5018833;28;20718;-72
2023/07/23 09:06:36;;;;;;;6.68;5.00;;;24.50;99.90;;;;;;5017431;28;20280;-74
2023/07/23 09:09:06;;;;;;;4.30;3.90;;;24.40;99.90;;;;;;5010677;28;20209;-73
2023/07/23 09:11:32;;;;;;;6.15;4.07;;;25.00;99.90;;;;;;5009985;28;20764;-73
2023/07/23 09:14:14;;;;;;;5.38;4.20;;;25.00;99.90;;;;;;5010817;28;20200;-73
2023/07/23 09:16:42;;;;;;;4.55;3.88;;;25.00;99.90;;;;;;5010106;28;20671;-73
2023/07/23 09:19:09;;;;;;;6.03;4.40;;;25.50;99.90;;;;;;5007144;28;20237;-73
2023/07/23 09:21:36;;;;;;;6.15;4.20;;;25.50;99.90;;;;;;5017125;28;20214;-72
2023/07/23 09:24:07;;;;;;;6.30;3.80;;;25.30;99.90;;;;;;5013006;28;20697;-73
2023/07/23 09:26:35;;;;;;;5.13;4.10;;;24.80;99.90;;;;;;5014530;28;20235;-75
2023/07/23 09:29:00;;;;;;;5.95;4.60;;;25.10;99.90;;;;;;5010806;28;20204;-74
2023/07/23 09:31:29;;;;;;;5.80;4.15;;;25.70;99.90;;;;;;5018072;28;20344;-73
2023/07/23 09:33:57;;;;;;;5.88;4.70;;;25.70;99.90;;;;;;5015847;28;20303;-72
2023/07/23 09:36:24;;;;;;;6.80;4.38;;;25.90;99.90;;;;;;5018052;28;20212;-73
2023/07/23 09:38:54;;;;;;;5.10;4.38;;;25.90;99.90;;;;;;5015400;28;20271;-73
2023/07/23 09:41:20;;;;;;;5.97;4.25;;;25.90;99.90;;;;;;5019281;28;20939;-73
2023/07/23 09:43:46;;;;;;;5.55;4.10;;;25.50;99.90;;;;;;5020204;28;20189;-73
2023/07/23 09:46:11;;;;;;;5.03;4.00;;;26.00;99.90;;;;;;5007490;28;20270;-73
2023/07/23 09:48:45;;;;;;;6.55;4.55;;;26.40;99.90;;;;;;5011703;28;20204;-73
2023/07/23 09:51:12;;;;;;;5.28;4.03;;;26.10;99.90;;;;;;5003827;28;20324;-73
2023/07/23 09:53:47;;;;;;;8.23;4.00;;;25.90;99.90;;;;;;5017223;28;20303;-72
2023/07/23 09:56:18;;;;;;;5.47;4.32;;;25.60;99.90;;;;;;5007213;28;20240;-74
2023/07/23 09:58:50;;;;;;;6.03;4.03;;;25.70;99.90;;;;;;5012067;28;20176;-73
2023/07/23 10:01:17;;;;;;;3.70;3.38;;;26.00;99.90;;;;;;5014872;28;20261;-73
2023/07/23 10:03:47;;;;;;;6.18;4.22;;;26.10;99.90;;;;;;5013072;28;20208;-73
2023/07/23 10:06:15;;;;;;;6.95;4.50;;;26.20;99.90;;;;;;5015626;28;20227;-72
2023/07/23 10:08:43;;;;;;;5.60;4.38;;;27.20;99.90;;;;;;5014671;28;20226;-73
2023/07/23 10:11:12;;;;;;;11.38;4.15;;;26.80;99.90;;;;;;5014370;28;20205;-73
2023/07/23 10:13:39;;;;;;;5.57;4.55;;;26.70;99.90;;;;;;5016915;28;20186;-73
2023/07/23 10:16:31;;;;;;;6.85;4.05;;;26.60;99.90;;;;;;5017358;28;20300;-74
2023/07/23 10:18:58;;;;;;;4.47;4.07;;;26.80;99.90;;;;;;5009468;28;20232;-73
2023/07/23 10:21:29;;;;;;;5.30;4.38;;;26.70;99.90;;;;;;5012083;28;20264;-71
2023/07/23 10:23:56;;;;;;;5.65;4.63;;;26.40;99.90;;;;;;5008410;28;20220;-72
2023/07/23 10:26:26;;;;;;;5.63;5.03;;;26.60;99.90;;;;;;5009306;28;20288;-74
2023/07/23 10:29:13;;;;;;;5.30;4.65;;;26.50;99.90;;;;;;5011606;28;20180;-74
2023/07/23 10:31:40;;;;;;;7.03;4.03;;;26.40;99.90;;;;;;5010534;28;20179;-74
2023/07/23 10:34:27;;;;;;;5.38;4.88;;;26.50;99.90;;;;;;5008934;28;20213;-74
2023/07/23 10:37:21;;;;;;;6.63;4.15;;;26.30;99.90;;;;;;5012144;28;20758;-73
2023/07/23 10:39:59;;;;;;;5.90;4.30;;;26.40;99.90;;;;;;5011690;28;20694;-72
2023/07/23 10:42:41;;;;;;;7.13;4.75;;;26.70;99.90;;;;;;5031054;28;20212;-73
2023/07/23 10:45:20;;;;;;;5.28;3.63;;;27.10;99.90;;;;;;5013984;28;20242;-73
2023/07/23 10:47:57;;;;;;;4.55;3.78;;;27.50;99.90;;;;;;5024455;28;20212;-74
2023/07/23 10:50:24;;;;;;;4.80;3.92;;;27.90;99.90;;;;;;5014348;28;20736;-72
2023/07/23 10:53:00;;;;;;;8.38;4.30;;;27.80;99.90;;;;;;5016061;28;20552;-72
2023/07/23 10:55:39;;;;;;;5.13;4.60;;;27.70;99.90;;;;;;5017938;28;20230;-73
2023/07/23 10:58:12;;;;;;;9.40;4.80;;;27.30;99.90;;;;;;5018198;28;20212;-74
2023/07/23 11:00:46;;;;;;;5.47;4.32;;;27.60;99.90;;;;;;5011776;28;20215;-74
2023/07/23 11:03:14;;;;;;;4.93;4.38;;;27.30;99.90;;;;;;5012264;28;20272;-73
2023/07/23 11:05:42;;;;;;;4.35;3.83;;;27.10;99.90;;;;;;5017199;28;20215;-73
2023/07/23 11:08:23;;;;;;;6.38;4.25;;;27.00;99.90;;;;;;5014353;28;20235;-74
2023/07/23 11:11:00;;;;;;;4.60;4.03;;;27.20;99.90;;;;;;5013945;28;20245;-74
2023/07/23 11:13:34;;;;;;;4.60;3.97;;;27.60;99.90;;;;;;5021594;28;20220;-75
2023/07/23 11:16:03;;;;;;;4.82;4.18;;;27.60;99.90;;;;;;5017179;28;20283;-73
2023/07/23 11:18:31;;;;;;;5.75;4.07;;;28.10;99.90;;;;;;5018684;28;20204;-74
2023/07/23 11:20:57;;;;;;;7.95;4.20;;;28.30;99.90;;;;;;5018124;28;20629;-73
2023/07/23 11:23:25;;;;;;;7.22;4.35;;;28.60;99.90;;;;;;5019074;28;20275;-73
2023/07/23 11:25:51;;;;;;;4.50;4.10;;;28.30;99.90;;;;;;5018655;28;20206;-73
2023/07/23 11:28:18;;;;;;;5.25;4.32;;;28.10;99.90;;;;;;5024357;28;20252;-73
2023/07/23 11:30:44;;;;;;;4.53;4.13;;;28.30;99.90;;;;;;5020463;28;20208;-74
2023/07/23 11:33:12;;;;;;;7.40;4.35;;;28.20;99.90;;;;;;5024706;28;20213;-74
2023/07/23 11:35:38;;;;;;;4.10;3.70;;;28.40;99.90;;;;;;5015166;28;20217;-74
2023/07/23 11:38:05;;;;;;;8.25;4.38;;;27.80;99.90;;;;;;5012197;28;20180;-73
2023/07/23 11:40:31;;;;;;;4.43;3.75;;;28.10;99.90;;;;;;5012227;28;20224;-73
2023/07/23 11:43:01;;;;;;;5.47;4.18;;;28.20;99.90;;;;;;5016130;28;20576;-72
2023/07/23 11:45:27;;;;;;;6.38;4.88;;;28.00;99.90;;;;;;5013218;28;20319;-73
2023/07/23 11:47:54;;;;;;;4.53;4.13;;;27.80;99.90;;;;;;5016030;28;20258;-72
2023/07/23 11:50:23;;;;;;;4.82;3.83;;;28.00;99.90;;;;;;5012564;28;20220;-74
2023/07/23 11:52:51;;;;;;;6.30;4.32;;;28.40;99.90;;;;;;5011670;28;20595;-74
2023/07/23 11:55:20;;;;;;;6.20;3.58;;;28.40;99.90;;;;;;5013327;28;20633;-73
2023/07/23 11:57:50;;;;;;;5.05;3.70;;;28.70;99.90;;;;;;5017076;28;20567;-74
2023/07/23 12:00:23;;;;;;;6.68;3.95;;;28.70;99.80;;;;;;5016513;28;20236;-73
2023/07/23 12:02:49;;;;;;;4.40;3.33;;;28.80;99.90;;;;;;5017151;28;20208;-73
2023/07/23 12:05:15;;;;;;;4.05;3.65;;;28.50;99.90;;;;;;5023305;28;20753;-75
2023/07/23 12:07:41;;;;;;;4.93;3.05;;;28.20;99.50;;;;;;5019095;28;20184;-73
2023/07/23 12:10:07;;;;;;;4.72;3.40;;;28.10;99.40;;;;;;5018031;28;20212;-72
2023/07/23 12:12:33;;;;;;;4.38;3.53;;;28.20;99.00;;;;;;5015552;28;20206;-73
2023/07/23 12:15:07;;;;;;;4.75;3.83;;;28.20;99.20;;;;;;5012311;28;20826;-72
2023/07/23 12:17:35;;;;;;;5.47;3.53;;;28.30;99.10;;;;;;5010913;28;20206;-72
2023/07/23 12:20:02;;;;;;;4.80;3.80;;;28.50;98.90;;;;;;5013734;28;20551;-72
2023/07/23 12:22:30;;;;;;;3.83;3.53;;;28.60;98.60;;;;;;5012381;28;20184;-72
2023/07/23 12:24:56;;;;;;;7.53;5.43;;;28.80;98.20;;;;;;5015778;28;20696;-73
2023/07/23 12:27:21;;;;;;;6.55;3.65;;;28.70;97.80;;;;;;5016645;28;20308;-73
2023/07/23 12:29:48;;;;;;;4.22;3.50;;;28.90;98.10;;;;;;5017197;28;20744;-73
2023/07/23 12:32:16;;;;;;;6.75;4.07;;;29.10;98.10;;;;;;5019277;28;20220;-73
2023/07/23 12:34:44;;;;;;;9.35;4.07;;;29.10;97.30;;;;;;5019045;28;20283;-74
2023/07/23 12:37:10;;;;;;;4.78;4.05;;;29.00;96.40;;;;;;5016131;28;20322;-73
2023/07/23 12:39:36;;;;;;;3.83;3.42;;;28.90;96.50;;;;;;5019755;28;20753;-73
2023/07/23 12:42:02;;;;;;;5.82;3.35;;;28.80;96.20;;;;;;5015794;28;20259;-73
2023/07/23 12:44:29;;;;;;;7.25;3.17;;;28.80;96.30;;;;;;5018776;28;20504;-74
2023/07/23 12:46:56;;;;;;;3.58;3.17;;;28.80;96.20;;;;;;5013949;28;20243;-74